sensor_id;sensor_type;location;lat;lon;timestamp;P1;durP1;ratioP1;P2;durP2;ratioP2
73642;SDS011;61938;48.652;9.292;2022-12-13T00:00:08;63.90;;;24.95;;
73642;SDS011;61938;48.652;9.292;2022-12-13T00:02:38;65.25;;;23.70;;
73642;SDS011;61938;48.652;9.292;2022-12-13T00:05:06;63.35;;;25.42;;
73642;SDS011;61938;48.652;9.292;2022-12-13T00:07:32;66.70;;;24.92;;
73642;SDS011;61938;48.652;9.292;2022-12-13T00:09:58;59.55;;;24.13;;
73642;SDS011;61938;48.652;9.292;2022-12-13T00:12:24;60.67;;;25.05;;
73642;SDS011;61938;48.652;9.292;2022-12-13T00:14:49;71.63;;;25.38;;
73642;SDS011;61938;48.652;9.292;2022-12-13T00:17:15;58.45;;;24.23;;
73642;SDS011;61938;48.652;9.292;2022-12-13T00:19:40;64.55;;;26.20;;
73642;SDS011;61938;48.652;9.292;2022-12-13T00:22:06;58.80;;;25.15;;
73642;SDS011;61938;48.652;9.292;2022-12-13T00:24:31;64.43;;;24.88;;
73642;SDS011;61938;48.652;9.292;2022-12-13T00:26:57;55.25;;;22.92;;
73642;SDS011;61938;48.652;9.292;2022-12-13T00:29:22;58.38;;;23.90;;
73642;SDS011;61938;48.652;9.292;2022-12-13T00:31:48;60.67;;;25.00;;
73642;SDS011;61938;48.652;9.292;2022-12-13T00:34:13;73.05;;;26.42;;
73642;SDS011;61938;48.652;9.292;2022-12-13T00:36:39;66.05;;;25.65;;
73642;SDS011;61938;48.652;9.292;2022-12-13T00:39:04;51.72;;;22.80;;
73642;SDS011;61938;48.652;9.292;2022-12-13T00:41:31;69.50;;;25.73;;
73642;SDS011;61938;48.652;9.292;2022-12-13T00:43:58;65.53;;;24.42;;
73642;SDS011;61938;48.652;9.292;2022-12-13T00:46:24;57.53;;;23.23;;
73642;SDS011;61938;48.652;9.292;2022-12-13T00:48:51;69.32;;;24.30;;
73642;SDS011;61938;48.652;9.292;2022-12-13T00:51:20;68.22;;;25.15;;
73642;SDS011;61938;48.652;9.292;2022-12-13T00:53:46;68.38;;;26.05;;
73642;SDS011;61938;48.652;9.292;2022-12-13T00:56:14;69.35;;;26.13;;
73642;SDS011;61938;48.652;9.292;2022-12-13T00:58:41;58.30;;;24.20;;
73642;SDS011;61938;48.652;9.292;2022-12-13T01:01:08;69.90;;;25.80;;
73642;SDS011;61938;48.652;9.292;2022-12-13T01:03:35;64.97;;;23.73;;
73642;SDS011;61938;48.652;9.292;2022-12-13T01:06:00;61.67;;;24.83;;
73642;SDS011;61938;48.652;9.292;2022-12-13T01:08:31;72.25;;;24.98;;
73642;SDS011;61938;48.652;9.292;2022-12-13T01:10:57;71.50;;;26.23;;
73642;SDS011;61938;48.652;9.292;2022-12-13T01:13:22;60.70;;;25.75;;
73642;SDS011;61938;48.652;9.292;2022-12-13T01:15:48;68.05;;;25.38;;
73642;SDS011;61938;48.652;9.292;2022-12-13T01:18:14;68.07;;;27.77;;
73642;SDS011;61938;48.652;9.292;2022-12-13T01:20:45;61.08;;;24.75;;
73642;SDS011;61938;48.652;9.292;2022-12-13T01:23:22;76.15;;;26.83;;
73642;SDS011;61938;48.652;9.292;2022-12-13T01:25:48;64.85;;;23.83;;
73642;SDS011;61938;48.652;9.292;2022-12-13T01:28:13;62.40;;;25.98;;
73642;SDS011;61938;48.652;9.292;2022-12-13T01:30:39;67.75;;;25.92;;
73642;SDS011;61938;48.652;9.292;2022-12-13T01:33:04;56.25;;;24.30;;
73642;SDS011;61938;48.652;9.292;2022-12-13T01:35:32;64.82;;;23.95;;
73642;SDS011;61938;48.652;9.292;2022-12-13T01:37:58;62.22;;;24.83;;
73642;SDS011;61938;48.652;9.292;2022-12-13T01:40:24;66.78;;;25.45;;
73642;SDS011;61938;48.652;9.292;2022-12-13T01:42:49;56.72;;;24.65;;
73642;SDS011;61938;48.652;9.292;2022-12-13T01:47:55;65.07;;;25.50;;
73642;SDS011;61938;48.652;9.292;2022-12-13T01:50:28;64.30;;;25.67;;
73642;SDS011;61938;48.652;9.292;2022-12-13T01:52:58;65.05;;;25.92;;
73642;SDS011;61938;48.652;9.292;2022-12-13T01:55:24;63.35;;;24.77;;
73642;SDS011;61938;48.652;9.292;2022-12-13T01:57:54;64.82;;;26.23;;
73642;SDS011;61938;48.652;9.292;2022-12-13T02:00:21;63.58;;;25.48;;
73642;SDS011;61938;48.652;9.292;2022-12-13T02:02:50;69.93;;;26.27;;
73642;SDS011;61938;48.652;9.292;2022-12-13T02:05:20;59.72;;;25.83;;
73642;SDS011;61938;48.652;9.292;2022-12-13T02:07:57;64.93;;;24.42;;
73642;SDS011;61938;48.652;9.292;2022-12-13T02:10:25;68.72;;;25.98;;
73642;SDS011;61938;48.652;9.292;2022-12-13T02:12:51;75.18;;;25.95;;
73642;SDS011;61938;48.652;9.292;2022-12-13T02:15:17;61.08;;;25.17;;
73642;SDS011;61938;48.652;9.292;2022-12-13T02:17:51;66.60;;;27.10;;
73642;SDS011;61938;48.652;9.292;2022-12-13T02:20:50;63.65;;;25.42;;
73642;SDS011;61938;48.652;9.292;2022-12-13T02:26:29;73.53;;;26.45;;
73642;SDS011;61938;48.652;9.292;2022-12-13T02:32:00;65.38;;;23.83;;
73642;SDS011;61938;48.652;9.292;2022-12-13T02:37:29;62.83;;;24.27;;
73642;SDS011;61938;48.652;9.292;2022-12-13T02:40:32;61.97;;;24.35;;
73642;SDS011;61938;48.652;9.292;2022-12-13T02:43:19;56.90;;;22.80;;
73642;SDS011;61938;48.652;9.292;2022-12-13T02:45:53;58.15;;;23.10;;
73642;SDS011;61938;48.652;9.292;2022-12-13T02:48:25;59.08;;;23.63;;
73642;SDS011;61938;48.652;9.292;2022-12-13T02:50:53;63.95;;;24.35;;
73642;SDS011;61938;48.652;9.292;2022-12-13T02:53:21;66.07;;;25.27;;
73642;SDS011;61938;48.652;9.292;2022-12-13T02:55:48;58.83;;;24.02;;
73642;SDS011;61938;48.652;9.292;2022-12-13T02:58:15;64.07;;;23.77;;
73642;SDS011;61938;48.652;9.292;2022-12-13T03:03:46;63.78;;;24.13;;
73642;SDS011;61938;48.652;9.292;2022-12-13T03:06:46;62.47;;;23.48;;
73642;SDS011;61938;48.652;9.292;2022-12-13T03:09:38;57.30;;;22.42;;
73642;SDS011;61938;48.652;9.292;2022-12-13T03:17:49;48.47;;;20.10;;
73642;SDS011;61938;48.652;9.292;2022-12-13T03:20:21;56.33;;;20.67;;
73642;SDS011;61938;48.652;9.292;2022-12-13T03:22:50;55.40;;;21.45;;
73642;SDS011;61938;48.652;9.292;2022-12-13T03:25:16;47.83;;;20.08;;
73642;SDS011;61938;48.652;9.292;2022-12-13T03:27:43;50.75;;;19.92;;
73642;SDS011;61938;48.652;9.292;2022-12-13T03:30:08;50.58;;;20.08;;
73642;SDS011;61938;48.652;9.292;2022-12-13T03:32:34;51.95;;;19.85;;
73642;SDS011;61938;48.652;9.292;2022-12-13T03:35:00;53.05;;;20.05;;
73642;SDS011;61938;48.652;9.292;2022-12-13T03:37:26;60.17;;;20.30;;
73642;SDS011;61938;48.652;9.292;2022-12-13T03:39:51;47.55;;;19.42;;
73642;SDS011;61938;48.652;9.292;2022-12-13T03:42:17;51.45;;;20.33;;
73642;SDS011;61938;48.652;9.292;2022-12-13T03:44:43;50.58;;;21.08;;
73642;SDS011;61938;48.652;9.292;2022-12-13T03:47:08;47.08;;;18.73;;
73642;SDS011;61938;48.652;9.292;2022-12-13T03:49:34;58.05;;;21.55;;
73642;SDS011;61938;48.652;9.292;2022-12-13T03:51:59;51.03;;;20.63;;
73642;SDS011;61938;48.652;9.292;2022-12-13T03:54:25;58.22;;;21.00;;
73642;SDS011;61938;48.652;9.292;2022-12-13T03:56:50;54.15;;;20.27;;
73642;SDS011;61938;48.652;9.292;2022-12-13T03:59:16;47.17;;;18.90;;
73642;SDS011;61938;48.652;9.292;2022-12-13T04:01:41;44.95;;;18.38;;
73642;SDS011;61938;48.652;9.292;2022-12-13T04:04:07;47.70;;;18.45;;
73642;SDS011;61938;48.652;9.292;2022-12-13T04:06:32;51.53;;;18.25;;
73642;SDS011;61938;48.652;9.292;2022-12-13T04:08:58;45.03;;;18.48;;
73642;SDS011;61938;48.652;9.292;2022-12-13T04:11:24;48.03;;;18.70;;
73642;SDS011;61938;48.652;9.292;2022-12-13T04:14:08;45.15;;;17.33;;
73642;SDS011;61938;48.652;9.292;2022-12-13T04:16:34;42.35;;;17.15;;
73642;SDS011;61938;48.652;9.292;2022-12-13T04:18:59;43.38;;;18.90;;
73642;SDS011;61938;48.652;9.292;2022-12-13T04:21:25;41.88;;;16.98;;
73642;SDS011;61938;48.652;9.292;2022-12-13T04:23:50;48.42;;;17.58;;
73642;SDS011;61938;48.652;9.292;2022-12-13T04:26:16;48.75;;;18.38;;
73642;SDS011;61938;48.652;9.292;2022-12-13T04:28:41;49.67;;;17.00;;
73642;SDS011;61938;48.652;9.292;2022-12-13T04:31:07;45.10;;;17.58;;
73642;SDS011;61938;48.652;9.292;2022-12-13T04:33:32;45.53;;;18.48;;
73642;SDS011;61938;48.652;9.292;2022-12-13T04:35:58;44.15;;;16.98;;
73642;SDS011;61938;48.652;9.292;2022-12-13T04:38:24;44.95;;;17.05;;
73642;SDS011;61938;48.652;9.292;2022-12-13T04:40:49;46.60;;;18.20;;
73642;SDS011;61938;48.652;9.292;2022-12-13T04:43:15;43.97;;;16.83;;
73642;SDS011;61938;48.652;9.292;2022-12-13T04:45:40;40.75;;;16.48;;
73642;SDS011;61938;48.652;9.292;2022-12-13T04:48:06;46.15;;;18.33;;
73642;SDS011;61938;48.652;9.292;2022-12-13T04:50:32;47.15;;;18.02;;
73642;SDS011;61938;48.652;9.292;2022-12-13T04:52:57;46.20;;;17.58;;
73642;SDS011;61938;48.652;9.292;2022-12-13T04:55:23;45.40;;;18.23;;
73642;SDS011;61938;48.652;9.292;2022-12-13T04:57:49;47.08;;;18.35;;
73642;SDS011;61938;48.652;9.292;2022-12-13T05:00:14;46.25;;;17.73;;
73642;SDS011;61938;48.652;9.292;2022-12-13T05:02:40;52.38;;;19.27;;
73642;SDS011;61938;48.652;9.292;2022-12-13T05:05:07;44.25;;;18.00;;
73642;SDS011;61938;48.652;9.292;2022-12-13T05:07:33;38.88;;;16.73;;
73642;SDS011;61938;48.652;9.292;2022-12-13T05:09:59;47.28;;;19.00;;
73642;SDS011;61938;48.652;9.292;2022-12-13T05:12:24;48.00;;;19.50;;
73642;SDS011;61938;48.652;9.292;2022-12-13T05:14:50;48.20;;;17.88;;
73642;SDS011;61938;48.652;9.292;2022-12-13T05:17:16;43.53;;;18.15;;
73642;SDS011;61938;48.652;9.292;2022-12-13T05:19:42;48.78;;;17.70;;
73642;SDS011;61938;48.652;9.292;2022-12-13T05:22:08;43.08;;;17.98;;
73642;SDS011;61938;48.652;9.292;2022-12-13T05:24:39;41.58;;;16.77;;
73642;SDS011;61938;48.652;9.292;2022-12-13T05:27:06;44.50;;;18.15;;
73642;SDS011;61938;48.652;9.292;2022-12-13T05:29:32;45.55;;;17.85;;
73642;SDS011;61938;48.652;9.292;2022-12-13T05:31:58;45.63;;;18.15;;
73642;SDS011;61938;48.652;9.292;2022-12-13T05:34:23;46.42;;;17.35;;
73642;SDS011;61938;48.652;9.292;2022-12-13T05:36:49;45.35;;;18.67;;
73642;SDS011;61938;48.652;9.292;2022-12-13T05:39:15;47.85;;;17.48;;
73642;SDS011;61938;48.652;9.292;2022-12-13T05:41:40;46.70;;;16.20;;
73642;SDS011;61938;48.652;9.292;2022-12-13T05:44:06;42.13;;;17.00;;
73642;SDS011;61938;48.652;9.292;2022-12-13T05:46:34;42.63;;;16.52;;
73642;SDS011;61938;48.652;9.292;2022-12-13T05:49:00;51.72;;;18.65;;
73642;SDS011;61938;48.652;9.292;2022-12-13T05:51:26;40.30;;;17.80;;
73642;SDS011;61938;48.652;9.292;2022-12-13T05:53:51;46.53;;;17.45;;
73642;SDS011;61938;48.652;9.292;2022-12-13T05:56:17;45.95;;;18.60;;
73642;SDS011;61938;48.652;9.292;2022-12-13T05:58:42;47.88;;;19.05;;
73642;SDS011;61938;48.652;9.292;2022-12-13T06:01:09;42.65;;;17.20;;
73642;SDS011;61938;48.652;9.292;2022-12-13T06:03:36;39.92;;;17.33;;
73642;SDS011;61938;48.652;9.292;2022-12-13T06:06:02;47.35;;;18.05;;
73642;SDS011;61938;48.652;9.292;2022-12-13T06:08:28;41.45;;;17.05;;
73642;SDS011;61938;48.652;9.292;2022-12-13T06:10:55;46.33;;;17.05;;
73642;SDS011;61938;48.652;9.292;2022-12-13T06:13:22;48.70;;;18.40;;
73642;SDS011;61938;48.652;9.292;2022-12-13T06:15:48;41.75;;;15.90;;
73642;SDS011;61938;48.652;9.292;2022-12-13T06:18:14;40.90;;;16.05;;
73642;SDS011;61938;48.652;9.292;2022-12-13T06:20:39;40.80;;;15.50;;
73642;SDS011;61938;48.652;9.292;2022-12-13T06:23:05;45.97;;;17.27;;
73642;SDS011;61938;48.652;9.292;2022-12-13T06:25:30;42.60;;;16.55;;
73642;SDS011;61938;48.652;9.292;2022-12-13T06:27:56;42.22;;;16.58;;
73642;SDS011;61938;48.652;9.292;2022-12-13T06:30:21;37.42;;;16.38;;
73642;SDS011;61938;48.652;9.292;2022-12-13T06:32:48;45.17;;;17.42;;
73642;SDS011;61938;48.652;9.292;2022-12-13T06:35:14;42.25;;;16.73;;
73642;SDS011;61938;48.652;9.292;2022-12-13T06:37:40;36.20;;;16.00;;
73642;SDS011;61938;48.652;9.292;2022-12-13T06:40:05;38.13;;;15.90;;
73642;SDS011;61938;48.652;9.292;2022-12-13T06:42:31;42.38;;;15.70;;
73642;SDS011;61938;48.652;9.292;2022-12-13T06:44:57;41.80;;;15.77;;
73642;SDS011;61938;48.652;9.292;2022-12-13T06:47:23;36.53;;;14.95;;
73642;SDS011;61938;48.652;9.292;2022-12-13T06:49:49;40.47;;;14.70;;
73642;SDS011;61938;48.652;9.292;2022-12-13T06:52:15;43.70;;;16.10;;
73642;SDS011;61938;48.652;9.292;2022-12-13T06:54:41;40.55;;;15.65;;
73642;SDS011;61938;48.652;9.292;2022-12-13T06:57:07;35.67;;;14.90;;
73642;SDS011;61938;48.652;9.292;2022-12-13T06:59:33;40.53;;;13.98;;
73642;SDS011;61938;48.652;9.292;2022-12-13T07:01:58;41.42;;;15.77;;
73642;SDS011;61938;48.652;9.292;2022-12-13T07:04:24;43.75;;;15.30;;
73642;SDS011;61938;48.652;9.292;2022-12-13T07:06:49;37.97;;;15.15;;
73642;SDS011;61938;48.652;9.292;2022-12-13T07:09:15;35.70;;;15.82;;
73642;SDS011;61938;48.652;9.292;2022-12-13T07:11:40;38.75;;;15.32;;
73642;SDS011;61938;48.652;9.292;2022-12-13T07:14:06;41.65;;;16.23;;
73642;SDS011;61938;48.652;9.292;2022-12-13T07:16:32;35.92;;;15.02;;
73642;SDS011;61938;48.652;9.292;2022-12-13T07:18:58;36.28;;;15.30;;
73642;SDS011;61938;48.652;9.292;2022-12-13T07:21:25;39.20;;;14.65;;
73642;SDS011;61938;48.652;9.292;2022-12-13T07:23:51;37.15;;;15.50;;
73642;SDS011;61938;48.652;9.292;2022-12-13T07:26:17;36.05;;;15.15;;
73642;SDS011;61938;48.652;9.292;2022-12-13T07:28:43;39.40;;;14.65;;
73642;SDS011;61938;48.652;9.292;2022-12-13T07:31:09;38.05;;;15.63;;
73642;SDS011;61938;48.652;9.292;2022-12-13T07:33:36;39.10;;;15.15;;
73642;SDS011;61938;48.652;9.292;2022-12-13T07:36:03;37.50;;;15.30;;
73642;SDS011;61938;48.652;9.292;2022-12-13T07:38:50;43.65;;;15.82;;
73642;SDS011;61938;48.652;9.292;2022-12-13T07:41:17;36.40;;;14.52;;
73642;SDS011;61938;48.652;9.292;2022-12-13T07:43:43;34.92;;;15.10;;
73642;SDS011;61938;48.652;9.292;2022-12-13T07:46:08;36.10;;;15.30;;
73642;SDS011;61938;48.652;9.292;2022-12-13T07:48:35;36.55;;;16.33;;
73642;SDS011;61938;48.652;9.292;2022-12-13T07:51:03;42.80;;;14.43;;
73642;SDS011;61938;48.652;9.292;2022-12-13T07:53:35;37.53;;;15.30;;
73642;SDS011;61938;48.652;9.292;2022-12-13T07:56:05;36.75;;;15.18;;
73642;SDS011;61938;48.652;9.292;2022-12-13T07:58:33;48.05;;;16.10;;
73642;SDS011;61938;48.652;9.292;2022-12-13T08:00:59;41.47;;;14.90;;
73642;SDS011;61938;48.652;9.292;2022-12-13T08:03:27;44.67;;;16.20;;
73642;SDS011;61938;48.652;9.292;2022-12-13T08:08:35;42.22;;;16.60;;
73642;SDS011;61938;48.652;9.292;2022-12-13T08:11:05;41.67;;;14.73;;
73642;SDS011;61938;48.652;9.292;2022-12-13T08:13:33;42.15;;;16.20;;
73642;SDS011;61938;48.652;9.292;2022-12-13T08:16:00;41.75;;;16.33;;
73642;SDS011;61938;48.652;9.292;2022-12-13T08:18:27;45.13;;;17.38;;
73642;SDS011;61938;48.652;9.292;2022-12-13T08:20:57;46.63;;;16.48;;
73642;SDS011;61938;48.652;9.292;2022-12-13T08:23:24;41.35;;;16.00;;
73642;SDS011;61938;48.652;9.292;2022-12-13T08:25:53;43.42;;;17.05;;
73642;SDS011;61938;48.652;9.292;2022-12-13T08:28:19;42.40;;;15.40;;
73642;SDS011;61938;48.652;9.292;2022-12-13T08:30:44;38.38;;;16.08;;
73642;SDS011;61938;48.652;9.292;2022-12-13T08:33:11;51.55;;;17.85;;
73642;SDS011;61938;48.652;9.292;2022-12-13T08:35:36;43.03;;;16.75;;
73642;SDS011;61938;48.652;9.292;2022-12-13T08:38:02;40.95;;;15.25;;
73642;SDS011;61938;48.652;9.292;2022-12-13T08:40:27;40.47;;;15.73;;
73642;SDS011;61938;48.652;9.292;2022-12-13T08:42:53;43.92;;;15.93;;
73642;SDS011;61938;48.652;9.292;2022-12-13T08:45:19;47.42;;;19.73;;
73642;SDS011;61938;48.652;9.292;2022-12-13T08:47:47;39.65;;;16.85;;
73642;SDS011;61938;48.652;9.292;2022-12-13T08:50:13;46.20;;;19.17;;
73642;SDS011;61938;48.652;9.292;2022-12-13T08:52:39;44.75;;;17.17;;
73642;SDS011;61938;48.652;9.292;2022-12-13T08:55:04;39.58;;;17.08;;
73642;SDS011;61938;48.652;9.292;2022-12-13T08:57:30;49.78;;;17.92;;
73642;SDS011;61938;48.652;9.292;2022-12-13T08:59:55;51.67;;;17.23;;
73642;SDS011;61938;48.652;9.292;2022-12-13T09:02:21;45.75;;;18.83;;
73642;SDS011;61938;48.652;9.292;2022-12-13T09:04:46;41.42;;;17.42;;
73642;SDS011;61938;48.652;9.292;2022-12-13T09:07:12;39.05;;;16.15;;
73642;SDS011;61938;48.652;9.292;2022-12-13T09:09:38;44.35;;;17.60;;
73642;SDS011;61938;48.652;9.292;2022-12-13T09:12:04;52.03;;;19.40;;
73642;SDS011;61938;48.652;9.292;2022-12-13T09:14:29;46.75;;;17.20;;
73642;SDS011;61938;48.652;9.292;2022-12-13T09:16:55;48.83;;;18.80;;
73642;SDS011;61938;48.652;9.292;2022-12-13T09:19:21;49.08;;;18.48;;
73642;SDS011;61938;48.652;9.292;2022-12-13T09:21:46;41.25;;;17.73;;
73642;SDS011;61938;48.652;9.292;2022-12-13T09:24:12;50.22;;;18.33;;
73642;SDS011;61938;48.652;9.292;2022-12-13T09:26:38;46.63;;;18.25;;
73642;SDS011;61938;48.652;9.292;2022-12-13T09:29:03;44.83;;;18.92;;
73642;SDS011;61938;48.652;9.292;2022-12-13T09:31:29;54.17;;;20.95;;
73642;SDS011;61938;48.652;9.292;2022-12-13T09:33:55;62.30;;;21.52;;
73642;SDS011;61938;48.652;9.292;2022-12-13T09:36:20;59.72;;;22.60;;
73642;SDS011;61938;48.652;9.292;2022-12-13T09:38:46;70.20;;;23.88;;
73642;SDS011;61938;48.652;9.292;2022-12-13T09:41:14;64.22;;;25.35;;
73642;SDS011;61938;48.652;9.292;2022-12-13T09:43:54;68.05;;;26.27;;
73642;SDS011;61938;48.652;9.292;2022-12-13T09:46:35;63.45;;;25.08;;
73642;SDS011;61938;48.652;9.292;2022-12-13T09:49:06;64.25;;;24.20;;
73642;SDS011;61938;48.652;9.292;2022-12-13T09:51:38;58.40;;;22.92;;
73642;SDS011;61938;48.652;9.292;2022-12-13T09:54:03;58.63;;;20.90;;
73642;SDS011;61938;48.652;9.292;2022-12-13T09:56:29;58.22;;;21.23;;
73642;SDS011;61938;48.652;9.292;2022-12-13T09:58:55;47.13;;;18.73;;
73642;SDS011;61938;48.652;9.292;2022-12-13T10:01:21;46.60;;;19.17;;
73642;SDS011;61938;48.652;9.292;2022-12-13T10:03:48;46.78;;;18.42;;
73642;SDS011;61938;48.652;9.292;2022-12-13T10:06:16;47.60;;;17.92;;
73642;SDS011;61938;48.652;9.292;2022-12-13T10:08:48;45.30;;;16.92;;
73642;SDS011;61938;48.652;9.292;2022-12-13T10:11:19;42.25;;;17.90;;
73642;SDS011;61938;48.652;9.292;2022-12-13T10:13:57;40.55;;;16.98;;
73642;SDS011;61938;48.652;9.292;2022-12-13T10:21:37;37.80;;;15.35;;
73642;SDS011;61938;48.652;9.292;2022-12-13T10:24:27;46.63;;;16.00;;
73642;SDS011;61938;48.652;9.292;2022-12-13T10:26:57;40.70;;;16.48;;
73642;SDS011;61938;48.652;9.292;2022-12-13T10:29:42;42.17;;;17.88;;
73642;SDS011;61938;48.652;9.292;2022-12-13T10:32:20;44.50;;;17.05;;
73642;SDS011;61938;48.652;9.292;2022-12-13T10:34:46;43.42;;;17.17;;
73642;SDS011;61938;48.652;9.292;2022-12-13T10:37:30;40.10;;;16.15;;
73642;SDS011;61938;48.652;9.292;2022-12-13T10:39:59;34.67;;;15.25;;
73642;SDS011;61938;48.652;9.292;2022-12-13T10:42:24;45.22;;;17.50;;
73642;SDS011;61938;48.652;9.292;2022-12-13T10:47:51;39.22;;;15.68;;
73642;SDS011;61938;48.652;9.292;2022-12-13T10:50:23;35.45;;;15.80;;
73642;SDS011;61938;48.652;9.292;2022-12-13T10:52:51;38.97;;;15.10;;
73642;SDS011;61938;48.652;9.292;2022-12-13T10:58:02;33.50;;;13.85;;
73642;SDS011;61938;48.652;9.292;2022-12-13T11:00:41;36.95;;;15.13;;
73642;SDS011;61938;48.652;9.292;2022-12-13T11:03:12;45.97;;;15.68;;
73642;SDS011;61938;48.652;9.292;2022-12-13T11:06:00;47.75;;;15.48;;
73642;SDS011;61938;48.652;9.292;2022-12-13T11:08:28;45.72;;;14.45;;
73642;SDS011;61938;48.652;9.292;2022-12-13T11:11:00;34.67;;;14.52;;
73642;SDS011;61938;48.652;9.292;2022-12-13T11:13:30;30.77;;;13.43;;
73642;SDS011;61938;48.652;9.292;2022-12-13T11:16:20;33.83;;;13.37;;
73642;SDS011;61938;48.652;9.292;2022-12-13T11:18:55;33.03;;;13.60;;
73642;SDS011;61938;48.652;9.292;2022-12-13T11:21:30;31.50;;;13.30;;
73642;SDS011;61938;48.652;9.292;2022-12-13T11:23:58;30.45;;;12.63;;
73642;SDS011;61938;48.652;9.292;2022-12-13T11:26:27;29.45;;;11.25;;
73642;SDS011;61938;48.652;9.292;2022-12-13T11:32:00;32.22;;;13.27;;
73642;SDS011;61938;48.652;9.292;2022-12-13T11:35:04;27.13;;;11.80;;
73642;SDS011;61938;48.652;9.292;2022-12-13T11:37:56;34.00;;;11.82;;
73642;SDS011;61938;48.652;9.292;2022-12-13T11:40:48;26.83;;;10.55;;
73642;SDS011;61938;48.652;9.292;2022-12-13T11:43:24;27.25;;;10.65;;
73642;SDS011;61938;48.652;9.292;2022-12-13T11:46:04;25.50;;;10.93;;
73642;SDS011;61938;48.652;9.292;2022-12-13T11:48:49;30.75;;;12.45;;
73642;SDS011;61938;48.652;9.292;2022-12-13T11:51:17;25.67;;;11.73;;
73642;SDS011;61938;48.652;9.292;2022-12-13T11:53:51;27.88;;;12.15;;
73642;SDS011;61938;48.652;9.292;2022-12-13T11:56:30;32.60;;;11.07;;
73642;SDS011;61938;48.652;9.292;2022-12-13T11:59:08;32.45;;;11.95;;
73642;SDS011;61938;48.652;9.292;2022-12-13T12:04:51;24.20;;;11.55;;
73642;SDS011;61938;48.652;9.292;2022-12-13T12:07:19;23.88;;;10.70;;
73642;SDS011;61938;48.652;9.292;2022-12-13T12:12:55;24.23;;;10.30;;
73642;SDS011;61938;48.652;9.292;2022-12-13T12:15:29;24.95;;;10.90;;
73642;SDS011;61938;48.652;9.292;2022-12-13T12:18:00;25.10;;;11.25;;
73642;SDS011;61938;48.652;9.292;2022-12-13T12:26:09;44.92;;;12.52;;
73642;SDS011;61938;48.652;9.292;2022-12-13T12:28:47;39.28;;;15.40;;
73642;SDS011;61938;48.652;9.292;2022-12-13T12:41:47;27.88;;;11.52;;
73642;SDS011;61938;48.652;9.292;2022-12-13T12:52:32;25.38;;;10.40;;
73642;SDS011;61938;48.652;9.292;2022-12-13T13:00:59;36.13;;;10.18;;
73642;SDS011;61938;48.652;9.292;2022-12-13T13:03:53;35.50;;;11.50;;
73642;SDS011;61938;48.652;9.292;2022-12-13T13:06:22;25.83;;;10.48;;
73642;SDS011;61938;48.652;9.292;2022-12-13T13:09:04;27.35;;;10.90;;
73642;SDS011;61938;48.652;9.292;2022-12-13T13:11:36;35.20;;;12.88;;
73642;SDS011;61938;48.652;9.292;2022-12-13T13:16:51;27.60;;;10.15;;
73642;SDS011;61938;48.652;9.292;2022-12-13T13:21:43;28.73;;;12.20;;
73642;SDS011;61938;48.652;9.292;2022-12-13T13:24:15;26.00;;;9.82;;
73642;SDS011;61938;48.652;9.292;2022-12-13T13:26:51;26.38;;;11.15;;
73642;SDS011;61938;48.652;9.292;2022-12-13T13:34:22;27.05;;;11.18;;
73642;SDS011;61938;48.652;9.292;2022-12-13T13:36:50;28.88;;;10.60;;
73642;SDS011;61938;48.652;9.292;2022-12-13T13:55:44;20.73;;;9.57;;
73642;SDS011;61938;48.652;9.292;2022-12-13T14:01:47;34.47;;;11.30;;
73642;SDS011;61938;48.652;9.292;2022-12-13T14:10:05;29.23;;;10.27;;
73642;SDS011;61938;48.652;9.292;2022-12-13T14:12:49;37.40;;;14.00;;
73642;SDS011;61938;48.652;9.292;2022-12-13T14:27:23;38.83;;;10.35;;
73642;SDS011;61938;48.652;9.292;2022-12-13T14:30:02;25.15;;;10.20;;
73642;SDS011;61938;48.652;9.292;2022-12-13T14:32:29;26.17;;;10.15;;
73642;SDS011;61938;48.652;9.292;2022-12-13T14:35:01;31.02;;;10.63;;
73642;SDS011;61938;48.652;9.292;2022-12-13T14:37:31;30.92;;;9.98;;
73642;SDS011;61938;48.652;9.292;2022-12-13T14:39:58;33.92;;;10.75;;
73642;SDS011;61938;48.652;9.292;2022-12-13T14:42:31;25.35;;;10.18;;
73642;SDS011;61938;48.652;9.292;2022-12-13T14:45:14;24.98;;;9.93;;
73642;SDS011;61938;48.652;9.292;2022-12-13T14:47:45;23.15;;;10.18;;
73642;SDS011;61938;48.652;9.292;2022-12-13T14:50:12;31.23;;;10.80;;
73642;SDS011;61938;48.652;9.292;2022-12-13T14:52:42;19.75;;;9.30;;
73642;SDS011;61938;48.652;9.292;2022-12-13T14:55:20;28.20;;;11.25;;
73642;SDS011;61938;48.652;9.292;2022-12-13T14:57:55;25.33;;;9.77;;
73642;SDS011;61938;48.652;9.292;2022-12-13T15:00:27;25.73;;;9.43;;
73642;SDS011;61938;48.652;9.292;2022-12-13T15:02:56;34.00;;;9.95;;
73642;SDS011;61938;48.652;9.292;2022-12-13T15:07:52;31.88;;;11.00;;
73642;SDS011;61938;48.652;9.292;2022-12-13T15:10:22;22.55;;;8.95;;
73642;SDS011;61938;48.652;9.292;2022-12-13T15:13:02;24.80;;;10.07;;
73642;SDS011;61938;48.652;9.292;2022-12-13T15:15:30;25.27;;;9.10;;
73642;SDS011;61938;48.652;9.292;2022-12-13T15:18:05;29.10;;;10.68;;
73642;SDS011;61938;48.652;9.292;2022-12-13T15:20:41;25.88;;;10.38;;
73642;SDS011;61938;48.652;9.292;2022-12-13T15:23:17;25.20;;;9.45;;
73642;SDS011;61938;48.652;9.292;2022-12-13T15:25:47;24.50;;;9.07;;
73642;SDS011;61938;48.652;9.292;2022-12-13T15:28:19;21.75;;;8.32;;
73642;SDS011;61938;48.652;9.292;2022-12-13T15:30:45;31.10;;;10.45;;
73642;SDS011;61938;48.652;9.292;2022-12-13T15:35:40;40.28;;;11.93;;
73642;SDS011;61938;48.652;9.292;2022-12-13T15:38:09;25.65;;;9.93;;
73642;SDS011;61938;48.652;9.292;2022-12-13T15:40:42;27.77;;;10.48;;
73642;SDS011;61938;48.652;9.292;2022-12-13T15:43:18;23.55;;;10.23;;
73642;SDS011;61938;48.652;9.292;2022-12-13T15:45:50;20.50;;;9.73;;
73642;SDS011;61938;48.652;9.292;2022-12-13T15:48:38;23.40;;;9.68;;
73642;SDS011;61938;48.652;9.292;2022-12-13T15:51:14;33.15;;;12.10;;
73642;SDS011;61938;48.652;9.292;2022-12-13T15:56:39;36.45;;;12.55;;
73642;SDS011;61938;48.652;9.292;2022-12-13T15:59:26;44.38;;;13.73;;
73642;SDS011;61938;48.652;9.292;2022-12-13T16:01:54;38.05;;;15.07;;
73642;SDS011;61938;48.652;9.292;2022-12-13T16:04:21;25.25;;;11.82;;
73642;SDS011;61938;48.652;9.292;2022-12-13T16:06:48;30.95;;;11.80;;
73642;SDS011;61938;48.652;9.292;2022-12-13T16:09:17;25.20;;;11.68;;
73642;SDS011;61938;48.652;9.292;2022-12-13T16:11:54;28.63;;;10.45;;
73642;SDS011;61938;48.652;9.292;2022-12-13T16:14:32;24.88;;;9.98;;
73642;SDS011;61938;48.652;9.292;2022-12-13T16:19:40;24.00;;;10.35;;
73642;SDS011;61938;48.652;9.292;2022-12-13T16:22:06;35.92;;;11.75;;
73642;SDS011;61938;48.652;9.292;2022-12-13T16:24:31;30.05;;;12.38;;
73642;SDS011;61938;48.652;9.292;2022-12-13T16:26:57;37.13;;;14.95;;
73642;SDS011;61938;48.652;9.292;2022-12-13T16:29:22;30.40;;;13.02;;
73642;SDS011;61938;48.652;9.292;2022-12-13T16:31:48;28.52;;;11.73;;
73642;SDS011;61938;48.652;9.292;2022-12-13T16:34:14;29.02;;;11.68;;
73642;SDS011;61938;48.652;9.292;2022-12-13T16:36:41;30.75;;;12.90;;
73642;SDS011;61938;48.652;9.292;2022-12-13T16:39:09;34.75;;;12.40;;
73642;SDS011;61938;48.652;9.292;2022-12-13T16:41:36;23.25;;;11.07;;
73642;SDS011;61938;48.652;9.292;2022-12-13T16:44:05;31.33;;;11.63;;